sensor_id;sensor_type;location;lat;lon;timestamp;temperature;humidity
21031;DHT22;61072;47.808;7.636;2023-07-24T00:00:55;22.30;99.90
21031;DHT22;61072;47.808;7.636;2023-07-24T00:03:22;22.30;99.90
21031;DHT22;61072;47.808;7.636;2023-07-24T00:05:49;22.20;99.90
21031;DHT22;61072;47.808;7.636;2023-07-24T00:08:16;22.10;99.90
21031;DHT22;61072;47.808;7.636;2023-07-24T00:10:42;22.10;99.90
21031;DHT22;61072;47.808;7.636;2023-07-24T00:13:09;22.10;99.90
21031;DHT22;61072;47.808;7.636;2023-07-24T00:15:38;22.10;99.90
21031;DHT22;61072;47.808;7.636;2023-07-24T00:18:05;22.10;99.90
21031;DHT22;61072;47.808;7.636;2023-07-24T00:20:32;22.00;99.90
21031;DHT22;61072;47.808;7.636;2023-07-24T00:22:58;22.00;99.90
21031;DHT22;61072;47.808;7.636;2023-07-24T00:25:25;21.90;99.90
21031;DHT22;61072;47.808;7.636;2023-07-24T00:27:52;21.90;99.90
21031;DHT22;61072;47.808;7.636;2023-07-24T00:30:18;21.90;99.90
21031;DHT22;61072;47.808;7.636;2023-07-24T00:32:45;21.80;99.90
21031;DHT22;61072;47.808;7.636;2023-07-24T00:35:12;21.80;99.90
21031;DHT22;61072;47.808;7.636;2023-07-24T00:37:39;21.80;99.90
21031;DHT22;61072;47.808;7.636;2023-07-24T00:40:06;21.70;99.90
21031;DHT22;61072;47.808;7.636;2023-07-24T00:42:33;21.70;99.90
21031;DHT22;61072;47.808;7.636;2023-07-24T00:44:59;21.70;99.90
21031;DHT22;61072;47.808;7.636;2023-07-24T00:47:30;21.70;99.90
21031;DHT22;61072;47.808;7.636;2023-07-24T00:49:57;21.70;99.90
21031;DHT22;61072;47.808;7.636;2023-07-24T00:52:25;21.70;99.90
21031;DHT22;61072;47.808;7.636;2023-07-24T00:54:52;21.70;99.90
21031;DHT22;61072;47.808;7.636;2023-07-24T00:57:19;21.70;99.90
21031;DHT22;61072;47.808;7.636;2023-07-24T00:59:46;21.70;99.90
21031;DHT22;61072;47.808;7.636;2023-07-24T01:02:13;21.70;99.90
21031;DHT22;61072;47.808;7.636;2023-07-24T01:04:40;21.70;99.90
21031;DHT22;61072;47.808;7.636;2023-07-24T01:07:07;21.70;99.90
21031;DHT22;61072;47.808;7.636;2023-07-24T01:09:33;21.70;99.90
21031;DHT22;61072;47.808;7.636;2023-07-24T01:12:27;21.70;99.90
21031;DHT22;61072;47.808;7.636;2023-07-24T01:15:15;21.70;99.90
21031;DHT22;61072;47.808;7.636;2023-07-24T01:17:48;21.70;99.90
21031;DHT22;61072;47.808;7.636;2023-07-24T01:20:17;21.70;99.90
21031;DHT22;61072;47.808;7.636;2023-07-24T01:25:35;21.70;99.90
21031;DHT22;61072;47.808;7.636;2023-07-24T01:28:07;21.60;99.90
21031;DHT22;61072;47.808;7.636;2023-07-24T01:30:34;21.60;99.90
21031;DHT22;61072;47.808;7.636;2023-07-24T01:33:01;21.60;99.90
21031;DHT22;61072;47.808;7.636;2023-07-24T01:35:29;21.60;99.90
21031;DHT22;61072;47.808;7.636;2023-07-24T01:37:57;21.60;99.90
21031;DHT22;61072;47.808;7.636;2023-07-24T01:40:25;21.70;99.90
21031;DHT22;61072;47.808;7.636;2023-07-24T01:42:52;21.60;99.90
21031;DHT22;61072;47.808;7.636;2023-07-24T01:45:18;21.70;99.90
21031;DHT22;61072;47.808;7.636;2023-07-24T01:47:45;21.60;99.90
21031;DHT22;61072;47.808;7.636;2023-07-24T01:50:12;21.70;99.90
21031;DHT22;61072;47.808;7.636;2023-07-24T01:52:39;21.60;99.90
21031;DHT22;61072;47.808;7.636;2023-07-24T01:55:06;21.60;99.90
21031;DHT22;61072;47.808;7.636;2023-07-24T01:57:33;21.60;99.90
21031;DHT22;61072;47.808;7.636;2023-07-24T02:00:00;21.60;99.90
21031;DHT22;61072;47.808;7.636;2023-07-24T02:02:26;21.60;99.90
21031;DHT22;61072;47.808;7.636;2023-07-24T02:04:53;21.60;99.90
21031;DHT22;61072;47.808;7.636;2023-07-24T02:07:20;21.50;99.90
21031;DHT22;61072;47.808;7.636;2023-07-24T02:09:47;21.50;99.90
21031;DHT22;61072;47.808;7.636;2023-07-24T02:12:13;21.50;99.90
21031;DHT22;61072;47.808;7.636;2023-07-24T02:14:40;21.50;99.90
21031;DHT22;61072;47.808;7.636;2023-07-24T02:17:07;21.50;99.90
21031;DHT22;61072;47.808;7.636;2023-07-24T02:19:33;21.50;99.90
21031;DHT22;61072;47.808;7.636;2023-07-24T02:22:00;21.50;99.90
21031;DHT22;61072;47.808;7.636;2023-07-24T02:24:27;21.50;99.90
21031;DHT22;61072;47.808;7.636;2023-07-24T02:26:54;21.50;99.90
21031;DHT22;61072;47.808;7.636;2023-07-24T02:29:20;21.50;99.90
21031;DHT22;61072;47.808;7.636;2023-07-24T02:31:50;21.40;99.90
21031;DHT22;61072;47.808;7.636;2023-07-24T02:34:16;21.50;99.90
21031;DHT22;61072;47.808;7.636;2023-07-24T02:36:43;21.40;99.90
21031;DHT22;61072;47.808;7.636;2023-07-24T02:39:10;21.40;99.90
21031;DHT22;61072;47.808;7.636;2023-07-24T02:41:37;21.40;99.90
21031;DHT22;61072;47.808;7.636;2023-07-24T02:44:03;21.40;99.90
21031;DHT22;61072;47.808;7.636;2023-07-24T02:46:30;21.40;99.90
21031;DHT22;61072;47.808;7.636;2023-07-24T02:48:57;21.40;99.90
21031;DHT22;61072;47.808;7.636;2023-07-24T02:51:24;21.40;99.90
21031;DHT22;61072;47.808;7.636;2023-07-24T02:53:54;21.40;99.90
21031;DHT22;61072;47.808;7.636;2023-07-24T02:56:21;21.40;99.90
21031;DHT22;61072;47.808;7.636;2023-07-24T02:58:48;21.30;99.90
21031;DHT22;61072;47.808;7.636;2023-07-24T03:01:15;21.40;99.90
21031;DHT22;61072;47.808;7.636;2023-07-24T03:03:41;21.30;99.90
21031;DHT22;61072;47.808;7.636;2023-07-24T03:06:08;21.30;99.90
21031;DHT22;61072;47.808;7.636;2023-07-24T03:08:35;21.30;99.90
21031;DHT22;61072;47.808;7.636;2023-07-24T03:11:05;21.40;99.90
21031;DHT22;61072;47.808;7.636;2023-07-24T03:13:32;21.30;99.90
21031;DHT22;61072;47.808;7.636;2023-07-24T03:15:59;21.30;99.90
21031;DHT22;61072;47.808;7.636;2023-07-24T03:18:25;21.40;99.90
21031;DHT22;61072;47.808;7.636;2023-07-24T03:20:52;21.40;99.90
21031;DHT22;61072;47.808;7.636;2023-07-24T03:23:19;21.40;99.90
21031;DHT22;61072;47.808;7.636;2023-07-24T03:25:46;21.40;99.90
21031;DHT22;61072;47.808;7.636;2023-07-24T03:28:13;21.40;99.90
21031;DHT22;61072;47.808;7.636;2023-07-24T03:30:40;21.40;99.90
21031;DHT22;61072;47.808;7.636;2023-07-24T03:33:07;21.50;99.90
21031;DHT22;61072;47.808;7.636;2023-07-24T03:35:34;21.50;99.90
21031;DHT22;61072;47.808;7.636;2023-07-24T03:38:01;21.50;99.90
21031;DHT22;61072;47.808;7.636;2023-07-24T03:40:27;21.50;99.90
21031;DHT22;61072;47.808;7.636;2023-07-24T03:42:54;21.60;99.90
21031;DHT22;61072;47.808;7.636;2023-07-24T03:45:21;21.60;99.90
21031;DHT22;61072;47.808;7.636;2023-07-24T03:47:48;21.60;99.90
21031;DHT22;61072;47.808;7.636;2023-07-24T03:50:15;21.60;99.90
21031;DHT22;61072;47.808;7.636;2023-07-24T03:52:41;21.60;99.90
21031;DHT22;61072;47.808;7.636;2023-07-24T03:55:08;21.70;99.90
21031;DHT22;61072;47.808;7.636;2023-07-24T03:57:35;21.60;99.90
21031;DHT22;61072;47.808;7.636;2023-07-24T04:00:03;21.70;99.90
21031;DHT22;61072;47.808;7.636;2023-07-24T04:02:30;21.70;99.90
21031;DHT22;61072;47.808;7.636;2023-07-24T04:04:56;21.70;99.90
21031;DHT22;61072;47.808;7.636;2023-07-24T04:07:23;21.80;99.90
21031;DHT22;61072;47.808;7.636;2023-07-24T04:09:50;21.80;99.90
21031;DHT22;61072;47.808;7.636;2023-07-24T04:12:16;21.80;99.90
21031;DHT22;61072;47.808;7.636;2023-07-24T04:14:43;21.80;99.90
21031;DHT22;61072;47.808;7.636;2023-07-24T04:17:10;21.80;99.90
21031;DHT22;61072;47.808;7.636;2023-07-24T04:19:37;21.90;99.90
21031;DHT22;61072;47.808;7.636;2023-07-24T04:22:03;21.90;99.90
21031;DHT22;61072;47.808;7.636;2023-07-24T04:24:30;22.00;99.90
21031;DHT22;61072;47.808;7.636;2023-07-24T04:26:57;22.00;99.90
21031;DHT22;61072;47.808;7.636;2023-07-24T04:29:24;22.00;99.90
21031;DHT22;61072;47.808;7.636;2023-07-24T04:31:52;22.00;99.90
21031;DHT22;61072;47.808;7.636;2023-07-24T04:34:19;22.10;99.90
21031;DHT22;61072;47.808;7.636;2023-07-24T04:36:46;22.10;99.90
21031;DHT22;61072;47.808;7.636;2023-07-24T04:39:12;22.10;99.90
21031;DHT22;61072;47.808;7.636;2023-07-24T04:41:39;22.20;99.90
21031;DHT22;61072;47.808;7.636;2023-07-24T04:44:06;22.20;99.90
21031;DHT22;61072;47.808;7.636;2023-07-24T04:46:32;22.20;99.90
21031;DHT22;61072;47.808;7.636;2023-07-24T04:49:00;22.20;99.90
21031;DHT22;61072;47.808;7.636;2023-07-24T04:51:26;22.10;99.90
21031;DHT22;61072;47.808;7.636;2023-07-24T04:53:53;22.10;99.90
21031;DHT22;61072;47.808;7.636;2023-07-24T04:56:20;22.10;99.90
21031;DHT22;61072;47.808;7.636;2023-07-24T04:58:47;22.10;99.90
21031;DHT22;61072;47.808;7.636;2023-07-24T05:01:14;22.10;99.90
21031;DHT22;61072;47.808;7.636;2023-07-24T05:03:41;22.00;99.90
21031;DHT22;61072;47.808;7.636;2023-07-24T05:06:07;22.10;99.90
21031;DHT22;61072;47.808;7.636;2023-07-24T05:08:34;22.00;99.90
21031;DHT22;61072;47.808;7.636;2023-07-24T05:11:01;22.00;99.90
21031;DHT22;61072;47.808;7.636;2023-07-24T05:13:28;21.90;99.90
21031;DHT22;61072;47.808;7.636;2023-07-24T05:15:55;21.90;99.90
21031;DHT22;61072;47.808;7.636;2023-07-24T05:18:21;22.00;99.90
21031;DHT22;61072;47.808;7.636;2023-07-24T05:20:49;22.00;99.90
21031;DHT22;61072;47.808;7.636;2023-07-24T05:23:18;22.00;99.90
21031;DHT22;61072;47.808;7.636;2023-07-24T05:25:45;22.00;99.90
21031;DHT22;61072;47.808;7.636;2023-07-24T05:28:11;22.00;99.90
21031;DHT22;61072;47.808;7.636;2023-07-24T05:30:38;22.00;99.90
21031;DHT22;61072;47.808;7.636;2023-07-24T05:33:05;22.00;99.90
21031;DHT22;61072;47.808;7.636;2023-07-24T05:35:32;22.00;99.90
21031;DHT22;61072;47.808;7.636;2023-07-24T05:37:58;22.00;99.90
21031;DHT22;61072;47.808;7.636;2023-07-24T05:40:25;22.00;99.90
21031;DHT22;61072;47.808;7.636;2023-07-24T05:42:52;22.00;99.90
21031;DHT22;61072;47.808;7.636;2023-07-24T05:45:19;22.00;99.90
21031;DHT22;61072;47.808;7.636;2023-07-24T05:47:45;22.00;99.90
21031;DHT22;61072;47.808;7.636;2023-07-24T05:50:12;22.00;99.90
21031;DHT22;61072;47.808;7.636;2023-07-24T05:52:40;22.00;99.90
21031;DHT22;61072;47.808;7.636;2023-07-24T05:55:08;22.00;99.90
21031;DHT22;61072;47.808;7.636;2023-07-24T05:57:35;22.00;99.90
21031;DHT22;61072;47.808;7.636;2023-07-24T06:00:03;22.00;99.90
21031;DHT22;61072;47.808;7.636;2023-07-24T06:02:31;22.00;99.90
21031;DHT22;61072;47.808;7.636;2023-07-24T06:04:58;22.10;99.90
21031;DHT22;61072;47.808;7.636;2023-07-24T06:07:24;22.10;99.90
21031;DHT22;61072;47.808;7.636;2023-07-24T06:09:51;22.10;99.90
21031;DHT22;61072;47.808;7.636;2023-07-24T06:12:18;22.10;99.90
21031;DHT22;61072;47.808;7.636;2023-07-24T06:14:45;22.20;99.90
21031;DHT22;61072;47.808;7.636;2023-07-24T06:17:11;22.30;99.90
21031;DHT22;61072;47.808;7.636;2023-07-24T06:19:38;22.30;99.90
21031;DHT22;61072;47.808;7.636;2023-07-24T06:22:05;22.40;99.90
21031;DHT22;61072;47.808;7.636;2023-07-24T06:24:32;22.40;99.90
21031;DHT22;61072;47.808;7.636;2023-07-24T06:26:58;22.40;99.90
21031;DHT22;61072;47.808;7.636;2023-07-24T06:29:25;22.40;99.90
21031;DHT22;61072;47.808;7.636;2023-07-24T06:31:52;22.40;99.90
21031;DHT22;61072;47.808;7.636;2023-07-24T06:34:19;22.40;99.90
21031;DHT22;61072;47.808;7.636;2023-07-24T06:36:46;22.40;99.90
21031;DHT22;61072;47.808;7.636;2023-07-24T06:39:12;22.40;99.90
21031;DHT22;61072;47.808;7.636;2023-07-24T06:41:39;22.40;99.90
21031;DHT22;61072;47.808;7.636;2023-07-24T06:44:06;22.50;99.90
21031;DHT22;61072;47.808;7.636;2023-07-24T06:46:32;22.50;99.90
21031;DHT22;61072;47.808;7.636;2023-07-24T06:48:59;22.60;99.90
21031;DHT22;61072;47.808;7.636;2023-07-24T06:51:26;22.60;99.90
21031;DHT22;61072;47.808;7.636;2023-07-24T06:53:52;22.60;99.90
21031;DHT22;61072;47.808;7.636;2023-07-24T06:56:19;22.70;99.90
21031;DHT22;61072;47.808;7.636;2023-07-24T06:58:46;22.80;99.90
21031;DHT22;61072;47.808;7.636;2023-07-24T07:01:13;22.90;99.90
21031;DHT22;61072;47.808;7.636;2023-07-24T07:03:39;23.00;99.90
21031;DHT22;61072;47.808;7.636;2023-07-24T07:06:06;23.10;99.90
21031;DHT22;61072;47.808;7.636;2023-07-24T07:08:33;23.20;99.90
21031;DHT22;61072;47.808;7.636;2023-07-24T07:11:00;23.30;99.90
21031;DHT22;61072;47.808;7.636;2023-07-24T07:13:28;23.40;99.90
21031;DHT22;61072;47.808;7.636;2023-07-24T07:15:55;23.40;99.90
21031;DHT22;61072;47.808;7.636;2023-07-24T07:18:22;23.50;99.90
21031;DHT22;61072;47.808;7.636;2023-07-24T07:20:52;23.50;99.90
21031;DHT22;61072;47.808;7.636;2023-07-24T07:23:20;23.40;99.90
21031;DHT22;61072;47.808;7.636;2023-07-24T07:25:47;23.40;99.90
21031;DHT22;61072;47.808;7.636;2023-07-24T07:28:15;23.30;99.90
21031;DHT22;61072;47.808;7.636;2023-07-24T07:30:43;23.30;99.90
21031;DHT22;61072;47.808;7.636;2023-07-24T07:33:11;23.30;99.90
21031;DHT22;61072;47.808;7.636;2023-07-24T07:35:38;23.20;99.90
21031;DHT22;61072;47.808;7.636;2023-07-24T07:38:05;23.20;99.90
21031;DHT22;61072;47.808;7.636;2023-07-24T07:40:31;23.10;99.90
21031;DHT22;61072;47.808;7.636;2023-07-24T07:42:58;23.10;99.90
21031;DHT22;61072;47.808;7.636;2023-07-24T07:45:25;23.10;99.90
21031;DHT22;61072;47.808;7.636;2023-07-24T07:47:52;23.10;99.90
21031;DHT22;61072;47.808;7.636;2023-07-24T07:50:20;23.10;99.90
21031;DHT22;61072;47.808;7.636;2023-07-24T07:52:50;23.10;99.90
21031;DHT22;61072;47.808;7.636;2023-07-24T07:55:18;23.10;99.90
21031;DHT22;61072;47.808;7.636;2023-07-24T07:57:45;23.20;99.90
21031;DHT22;61072;47.808;7.636;2023-07-24T08:00:12;23.20;99.90
21031;DHT22;61072;47.808;7.636;2023-07-24T08:02:39;23.20;99.90
21031;DHT22;61072;47.808;7.636;2023-07-24T08:05:08;23.20;99.90
21031;DHT22;61072;47.808;7.636;2023-07-24T08:07:45;23.20;99.90
21031;DHT22;61072;47.808;7.636;2023-07-24T08:10:12;23.20;99.90
21031;DHT22;61072;47.808;7.636;2023-07-24T08:12:42;23.20;99.90
21031;DHT22;61072;47.808;7.636;2023-07-24T08:15:09;23.20;99.90
21031;DHT22;61072;47.808;7.636;2023-07-24T08:17:37;23.10;99.90
21031;DHT22;61072;47.808;7.636;2023-07-24T08:20:05;23.10;99.90
21031;DHT22;61072;47.808;7.636;2023-07-24T08:22:31;23.10;99.90
21031;DHT22;61072;47.808;7.636;2023-07-24T08:24:58;23.10;99.90
21031;DHT22;61072;47.808;7.636;2023-07-24T08:27:25;23.20;99.90
21031;DHT22;61072;47.808;7.636;2023-07-24T08:29:52;23.20;99.90
21031;DHT22;61072;47.808;7.636;2023-07-24T08:32:19;23.20;99.90
21031;DHT22;61072;47.808;7.636;2023-07-24T08:34:46;23.20;99.90
21031;DHT22;61072;47.808;7.636;2023-07-24T08:37:13;23.10;99.90
21031;DHT22;61072;47.808;7.636;2023-07-24T08:39:40;23.00;99.90
21031;DHT22;61072;47.808;7.636;2023-07-24T08:42:12;23.00;99.90
21031;DHT22;61072;47.808;7.636;2023-07-24T08:44:39;23.00;99.90
21031;DHT22;61072;47.808;7.636;2023-07-24T08:47:10;23.10;99.90
21031;DHT22;61072;47.808;7.636;2023-07-24T08:49:38;23.30;99.90
21031;DHT22;61072;47.808;7.636;2023-07-24T08:52:07;23.40;99.90
21031;DHT22;61072;47.808;7.636;2023-07-24T08:54:38;23.40;99.90
21031;DHT22;61072;47.808;7.636;2023-07-24T08:57:08;23.40;99.90
21031;DHT22;61072;47.808;7.636;2023-07-24T08:59:35;23.20;99.90
21031;DHT22;61072;47.808;7.636;2023-07-24T09:02:01;23.10;99.90
21031;DHT22;61072;47.808;7.636;2023-07-24T09:04:29;22.80;99.90
21031;DHT22;61072;47.808;7.636;2023-07-24T09:06:57;22.50;99.90
21031;DHT22;61072;47.808;7.636;2023-07-24T09:09:29;22.10;99.90
21031;DHT22;61072;47.808;7.636;2023-07-24T09:11:57;21.70;99.90
21031;DHT22;61072;47.808;7.636;2023-07-24T09:14:28;20.00;99.90
21031;DHT22;61072;47.808;7.636;2023-07-24T09:17:09;17.10;99.90
21031;DHT22;61072;47.808;7.636;2023-07-24T09:19:36;17.00;99.90
21031;DHT22;61072;47.808;7.636;2023-07-24T09:22:13;17.40;99.90
21031;DHT22;61072;47.808;7.636;2023-07-24T09:24:55;17.70;99.90
21031;DHT22;61072;47.808;7.636;2023-07-24T09:27:27;18.10;99.90
21031;DHT22;61072;47.808;7.636;2023-07-24T09:29:55;18.30;99.90
21031;DHT22;61072;47.808;7.636;2023-07-24T09:32:23;18.30;99.90
21031;DHT22;61072;47.808;7.636;2023-07-24T09:34:50;18.30;99.90
21031;DHT22;61072;47.808;7.636;2023-07-24T09:37:28;18.50;99.90
21031;DHT22;61072;47.808;7.636;2023-07-24T09:39:55;18.50;99.90
21031;DHT22;61072;47.808;7.636;2023-07-24T09:42:34;18.50;99.90
21031;DHT22;61072;47.808;7.636;2023-07-24T09:45:18;18.20;99.90
21031;DHT22;61072;47.808;7.636;2023-07-24T09:47:49;18.00;99.90
21031;DHT22;61072;47.808;7.636;2023-07-24T09:50:25;18.10;99.90
21031;DHT22;61072;47.808;7.636;2023-07-24T09:52:53;18.10;99.90
21031;DHT22;61072;47.808;7.636;2023-07-24T09:55:28;18.30;99.90
21031;DHT22;61072;47.808;7.636;2023-07-24T09:57:57;18.30;99.90
21031;DHT22;61072;47.808;7.636;2023-07-24T10:00:25;18.40;99.90
21031;DHT22;61072;47.808;7.636;2023-07-24T10:02:52;18.50;99.90
21031;DHT22;61072;47.808;7.636;2023-07-24T10:05:19;18.50;99.90
21031;DHT22;61072;47.808;7.636;2023-07-24T10:07:47;18.50;99.90
21031;DHT22;61072;47.808;7.636;2023-07-24T10:10:14;18.40;99.90
21031;DHT22;61072;47.808;7.636;2023-07-24T10:12:41;18.30;99.90
21031;DHT22;61072;47.808;7.636;2023-07-24T10:15:08;18.10;99.90
21031;DHT22;61072;47.808;7.636;2023-07-24T10:17:40;18.20;99.90
21031;DHT22;61072;47.808;7.636;2023-07-24T10:20:09;18.10;99.90
21031;DHT22;61072;47.808;7.636;2023-07-24T10:22:40;18.20;99.90
21031;DHT22;61072;47.808;7.636;2023-07-24T10:25:09;18.40;99.90
21031;DHT22;61072;47.808;7.636;2023-07-24T10:27:43;18.70;99.90
21031;DHT22;61072;47.808;7.636;2023-07-24T10:30:14;18.90;99.90
21031;DHT22;61072;47.808;7.636;2023-07-24T10:33:19;19.20;99.90
21031;DHT22;61072;47.808;7.636;2023-07-24T10:35:51;19.50;99.90
21031;DHT22;61072;47.808;7.636;2023-07-24T10:38:17;19.70;99.90
21031;DHT22;61072;47.808;7.636;2023-07-24T10:40:46;20.00;99.90
21031;DHT22;61072;47.808;7.636;2023-07-24T10:43:19;20.20;99.90
21031;DHT22;61072;47.808;7.636;2023-07-24T10:45:52;20.40;99.90
21031;DHT22;61072;47.808;7.636;2023-07-24T10:48:24;20.40;99.90
21031;DHT22;61072;47.808;7.636;2023-07-24T10:50:52;20.50;99.90
21031;DHT22;61072;47.808;7.636;2023-07-24T10:53:22;20.50;99.90
21031;DHT22;61072;47.808;7.636;2023-07-24T10:55:50;20.40;99.90
21031;DHT22;61072;47.808;7.636;2023-07-24T10:58:18;20.50;99.90
21031;DHT22;61072;47.808;7.636;2023-07-24T11:00:45;20.30;99.90
21031;DHT22;61072;47.808;7.636;2023-07-24T11:03:14;20.40;99.90
21031;DHT22;61072;47.808;7.636;2023-07-24T11:05:46;20.40;99.90
21031;DHT22;61072;47.808;7.636;2023-07-24T11:08:17;20.30;99.90
21031;DHT22;61072;47.808;7.636;2023-07-24T11:10:49;20.20;99.90
21031;DHT22;61072;47.808;7.636;2023-07-24T11:13:18;20.20;99.90
21031;DHT22;61072;47.808;7.636;2023-07-24T11:15:46;20.10;99.90
21031;DHT22;61072;47.808;7.636;2023-07-24T11:18:13;20.20;99.90
21031;DHT22;61072;47.808;7.636;2023-07-24T11:20:45;20.30;99.90
21031;DHT22;61072;47.808;7.636;2023-07-24T11:23:13;20.40;99.90
21031;DHT22;61072;47.808;7.636;2023-07-24T11:25:41;20.50;99.90
21031;DHT22;61072;47.808;7.636;2023-07-24T11:28:09;20.40;99.90
21031;DHT22;61072;47.808;7.636;2023-07-24T11:30:36;20.30;99.90
21031;DHT22;61072;47.808;7.636;2023-07-24T11:33:05;20.30;99.90
21031;DHT22;61072;47.808;7.636;2023-07-24T11:35:33;20.30;99.90
21031;DHT22;61072;47.808;7.636;2023-07-24T11:38:00;20.30;99.90
21031;DHT22;61072;47.808;7.636;2023-07-24T11:40:35;20.20;99.90
21031;DHT22;61072;47.808;7.636;2023-07-24T11:43:03;20.30;99.90
21031;DHT22;61072;47.808;7.636;2023-07-24T11:45:31;20.20;99.90
21031;DHT22;61072;47.808;7.636;2023-07-24T11:47:58;20.30;99.90
21031;DHT22;61072;47.808;7.636;2023-07-24T11:50:25;20.40;99.90
21031;DHT22;61072;47.808;7.636;2023-07-24T11:52:52;20.40;99.90
21031;DHT22;61072;47.808;7.636;2023-07-24T11:55:32;20.40;99.90
21031;DHT22;61072;47.808;7.636;2023-07-24T11:58:00;20.40;99.90
21031;DHT22;61072;47.808;7.636;2023-07-24T12:00:27;20.40;99.90
21031;DHT22;61072;47.808;7.636;2023-07-24T12:03:00;20.40;99.90
21031;DHT22;61072;47.808;7.636;2023-07-24T12:05:27;20.60;99.90
21031;DHT22;61072;47.808;7.636;2023-07-24T12:07:54;20.60;99.90
21031;DHT22;61072;47.808;7.636;2023-07-24T12:10:26;20.70;99.90
21031;DHT22;61072;47.808;7.636;2023-07-24T12:12:58;20.90;99.90
21031;DHT22;61072;47.808;7.636;2023-07-24T12:15:26;20.90;99.90
21031;DHT22;61072;47.808;7.636;2023-07-24T12:17:56;20.90;99.90
21031;DHT22;61072;47.808;7.636;2023-07-24T12:20:23;20.90;99.90
21031;DHT22;61072;47.808;7.636;2023-07-24T12:22:50;20.90;99.90
21031;DHT22;61072;47.808;7.636;2023-07-24T12:25:17;20.60;99.90
21031;DHT22;61072;47.808;7.636;2023-07-24T12:27:43;20.60;99.90
21031;DHT22;61072;47.808;7.636;2023-07-24T12:30:10;20.70;99.90
21031;DHT22;61072;47.808;7.636;2023-07-24T12:32:37;20.60;99.90
21031;DHT22;61072;47.808;7.636;2023-07-24T12:35:04;20.70;99.90
21031;DHT22;61072;47.808;7.636;2023-07-24T12:37:31;20.60;99.90
21031;DHT22;61072;47.808;7.636;2023-07-24T12:39:58;20.60;99.90
21031;DHT22;61072;47.808;7.636;2023-07-24T12:42:24;20.60;99.90
21031;DHT22;61072;47.808;7.636;2023-07-24T12:44:52;20.60;99.90
21031;DHT22;61072;47.808;7.636;2023-07-24T12:47:19;20.50;99.90
21031;DHT22;61072;47.808;7.636;2023-07-24T12:49:46;20.40;99.90
21031;DHT22;61072;47.808;7.636;2023-07-24T12:52:12;19.90;99.90
21031;DHT22;61072;47.808;7.636;2023-07-24T12:54:39;19.90;99.90
21031;DHT22;61072;47.808;7.636;2023-07-24T12:57:26;19.90;99.90
21031;DHT22;61072;47.808;7.636;2023-07-24T12:59:53;19.70;99.90
21031;DHT22;61072;47.808;7.636;2023-07-24T13:02:20;19.50;99.90
21031;DHT22;61072;47.808;7.636;2023-07-24T13:04:46;19.40;99.90
21031;DHT22;61072;47.808;7.636;2023-07-24T13:07:13;19.50;99.90
21031;DHT22;61072;47.808;7.636;2023-07-24T13:09:40;19.50;99.90
21031;DHT22;61072;47.808;7.636;2023-07-24T13:12:07;19.60;99.90
21031;DHT22;61072;47.808;7.636;2023-07-24T13:14:34;19.50;99.90
21031;DHT22;61072;47.808;7.636;2023-07-24T13:17:03;19.40;99.90
21031;DHT22;61072;47.808;7.636;2023-07-24T13:19:29;19.50;99.90
21031;DHT22;61072;47.808;7.636;2023-07-24T13:21:56;19.50;99.90
21031;DHT22;61072;47.808;7.636;2023-07-24T13:24:23;19.60;99.90
21031;DHT22;61072;47.808;7.636;2023-07-24T13:26:50;19.80;99.90
21031;DHT22;61072;47.808;7.636;2023-07-24T13:29:17;19.80;99.90
21031;DHT22;61072;47.808;7.636;2023-07-24T13:31:44;19.80;99.90
21031;DHT22;61072;47.808;7.636;2023-07-24T13:34:11;19.80;99.90
21031;DHT22;61072;47.808;7.636;2023-07-24T13:36:37;19.70;99.90
21031;DHT22;61072;47.808;7.636;2023-07-24T13:39:04;19.70;99.90
21031;DHT22;61072;47.808;7.636;2023-07-24T13:41:31;19.70;99.90
21031;DHT22;61072;47.808;7.636;2023-07-24T13:43:59;19.80;99.90
21031;DHT22;61072;47.808;7.636;2023-07-24T13:46:25;19.80;99.90
21031;DHT22;61072;47.808;7.636;2023-07-24T13:48:52;19.80;99.90
21031;DHT22;61072;47.808;7.636;2023-07-24T13:51:19;20.00;99.90
21031;DHT22;61072;47.808;7.636;2023-07-24T13:53:45;20.00;99.90
21031;DHT22;61072;47.808;7.636;2023-07-24T13:56:14;20.20;99.90
21031;DHT22;61072;47.808;7.636;2023-07-24T13:58:41;20.00;99.90
21031;DHT22;61072;47.808;7.636;2023-07-24T14:01:08;19.90;99.90
21031;DHT22;61072;47.808;7.636;2023-07-24T14:03:35;19.80;99.90
21031;DHT22;61072;47.808;7.636;2023-07-24T14:06:02;19.70;99.90
21031;DHT22;61072;47.808;7.636;2023-07-24T14:08:29;19.80;99.90
21031;DHT22;61072;47.808;7.636;2023-07-24T14:10:55;19.70;99.90
21031;DHT22;61072;47.808;7.636;2023-07-24T14:13:22;19.70;99.90
21031;DHT22;61072;47.808;7.636;2023-07-24T14:15:49;19.60;99.90
21031;DHT22;61072;47.808;7.636;2023-07-24T14:18:16;19.50;99.90
21031;DHT22;61072;47.808;7.636;2023-07-24T14:20:43;19.70;99.90
21031;DHT22;61072;47.808;7.636;2023-07-24T14:23:09;19.90;99.90
21031;DHT22;61072;47.808;7.636;2023-07-24T14:25:36;20.00;99.90
21031;DHT22;61072;47.808;7.636;2023-07-24T14:28:03;20.20;99.90
21031;DHT22;61072;47.808;7.636;2023-07-24T14:30:30;20.30;99.90
21031;DHT22;61072;47.808;7.636;2023-07-24T14:32:57;20.30;99.90
21031;DHT22;61072;47.808;7.636;2023-07-24T14:35:23;20.20;99.90
21031;DHT22;61072;47.808;7.636;2023-07-24T14:37:50;20.30;99.90
21031;DHT22;61072;47.808;7.636;2023-07-24T14:40:17;20.30;99.90
21031;DHT22;61072;47.808;7.636;2023-07-24T14:42:44;20.40;99.90
21031;DHT22;61072;47.808;7.636;2023-07-24T14:45:10;20.40;99.90
21031;DHT22;61072;47.808;7.636;2023-07-24T14:47:37;20.20;99.90
21031;DHT22;61072;47.808;7.636;2023-07-24T14:50:04;20.30;99.90
21031;DHT22;61072;47.808;7.636;2023-07-24T14:52:31;20.20;99.90
21031;DHT22;61072;47.808;7.636;2023-07-24T14:54:58;20.40;99.90
21031;DHT22;61072;47.808;7.636;2023-07-24T14:57:25;20.40;99.90
21031;DHT22;61072;47.808;7.636;2023-07-24T14:59:52;20.50;99.90
21031;DHT22;61072;47.808;7.636;2023-07-24T15:02:19;20.50;99.90
21031;DHT22;61072;47.808;7.636;2023-07-24T15:04:46;20.40;99.90
21031;DHT22;61072;47.808;7.636;2023-07-24T15:07:13;20.40;99.90
21031;DHT22;61072;47.808;7.636;2023-07-24T15:09:40;20.50;99.90
21031;DHT22;61072;47.808;7.636;2023-07-24T15:12:07;20.50;99.90
21031;DHT22;61072;47.808;7.636;2023-07-24T15:14:34;20.50;99.90
21031;DHT22;61072;47.808;7.636;2023-07-24T15:17:01;20.60;99.90
21031;DHT22;61072;47.808;7.636;2023-07-24T15:19:27;20.70;99.90
21031;DHT22;61072;47.808;7.636;2023-07-24T15:21:54;20.60;99.90
21031;DHT22;61072;47.808;7.636;2023-07-24T15:24:21;20.80;99.90
21031;DHT22;61072;47.808;7.636;2023-07-24T15:26:47;20.80;99.90
21031;DHT22;61072;47.808;7.636;2023-07-24T15:29:15;20.90;99.90
21031;DHT22;61072;47.808;7.636;2023-07-24T15:31:44;20.80;99.90
21031;DHT22;61072;47.808;7.636;2023-07-24T15:34:12;20.70;99.90
21031;DHT22;61072;47.808;7.636;2023-07-24T15:36:38;20.90;99.90